Wood, South Dakota
Current Conditions -  °F | °C
As of 5:53 PM on Saturday 25 Oct 2014 (Local Time) from KICR Reporting Station
Clear Clear  
Wind Chill: 58°   Ceiling: Unl
Heat Index: 58°   Visibility: 10mi
Dew Point: 32°   Wind: 9mph
Humidity: 37%   Direction: 120°ESE
Pressure: 30.03"   Gusts: NA
Location:  43.5°N, 100.48°W
Report Text: KICR 252353Z AUTO 12008KT 10SM CLR 14/00 A3003 RMK AO2 SLP171 T01440000 10217 20144 56013 $
Loading
Personal Weather Stations






























Interactive Weather Map
Tropical Storm Tracking
New forecast layout! Learn more

10-Day Weather Forecast

Advertisements
Track Severe Weather on mobile